Seward, AK

10:28 AM AKDT on September 16, 2014 (GMT -0800)
Oak Street Forest Acres Seward Alaska | Change Station
CLOSE
Current Station
Personal Weather Station
Location: Seward, AK
Elevation: 144 ft
Nearby Weather Stations

Elev 144 ft 60.14 °N, 149.44 °W | Updated 28 seconds ago

Overcast
Overcast
50.2 °F
Feels Like 50.2 °F
N
0.0
Wind Variable Wind from SW

Today
High -- | Low -- °F
--% Chance of Precip.
Yesterday
High -- | Low -- °F
Precip. -- in
7:28 AM 8:15 PM
Last Quarter, 43% visible
Pressure 29.76 in
Visibility 4.0 miles
Clouds Few 200 ft
Few 2100 ft
Overcast 4200 ft
Dew Point 49 °F
Humidity 97%
Rainfall 0.04 in
Snow Depth 1 in , 4 in , 0 in
UV 15.0 out of 12
Pollen Not available.
Air Quality Not available.
Flu Activity Not available.
SPECI PAWD 161800Z AUTO 00000KT 4SM BR FEW002 FEW021 OVC042 10/09 A2976 RMK AO2 T01000094 TSNO

More Conditions Fewer Conditions

Pressure 29.76 in
Visibility 4.0 miles
Clouds Few 200 ft
Few 2100 ft
Overcast 4200 ft
Dew Point 49 °F
Humidity 97%
Rainfall 0.04 in
Snow Depth 1 in , 4 in , 0 in
UV 15.0 out of 12
Pollen Not available.
Air Quality Not available.
Flu Activity Not available.
SPECI PAWD 161800Z AUTO 00000KT 4SM BR FEW002 FEW021 OVC042 10/09 A2976 RMK AO2 T01000094 TSNO

More Conditions Fewer Conditions

10-Day Weather Forecast

Almanac

Astronomy

Sep. 16, 2014 Rise Set
Actual Time 7:28 AM AKDT 8:15 PM AKDT
Civil Twilight 6:45 AM AKDT 8:57 PM AKDT
Nautical Twilight 5:53 AM AKDT 9:48 PM AKDT
Astronomical Twilight 4:55 AM AKDT 10:46 PM AKDT
Moon No Moon Rise 4:54 PM AKDT
Length of Visible Light 14h 11m
Length of Day
12h 46m
Tomorrow will be 5m 26s shorter.
Last Quarter, 43% of the Moon is Illuminated
Today
Last Quarter
Sep 24
New
Oct 1
First Quarter
Oct 8
Full
Oct 15
Last Quarter

Today's Extremes

State Highs State Lows

Community

WunderPhotos

Upload Photos

1,753,852 photos uploaded!

WunderBlogs® & News

Nearby

Snow Depth

Station Depth Elevation
Munson Ridge 1 in 3100 ft
Rocky Point 4 in 500 ft
Upper Tsaina River 0 in 1750 ft
Moraine 0 in 2100 ft
Little Chena Ridge 0 in 2000 ft

Earthquake Activity

City Distance Mag. Time & Date
No recent earthquake activity has been reported nearby.
Minimum magnitude displayed is 2.5.

Coastal Water Temperatures

Place Temperature
No Stations Reporting

Nearby Weather Stations